Luchthaven weerrapport

 

EBBR - Brussel National Airport
Afstand tot station: NNW 8.5km
Update: 24/05/2024 14:50
Neerslag, Mist, Grotendeels bewolkt
Neerslag, Mist, Grotendeels bewolkt
 Wind van calm
Wind: Kalm
Temperatuur: 14°C
Dauwpunt: 12°C
Vochtigheid: 88%
Barometer: 1019 hPa
Overzicht: Neerslag, Mist
Wolken: Grotendeels bewolkt
Zicht: 4 km
Wolken in detail: Gedeeltelijk bewolkt 244 m
Grotendeels bewolkt 1372 m
2024/05/24 12:50 EBBR 241250Z 00000KT 4200 RA BR SCT008 BKN045 14/12 Q1019 NOSIG